Time;durP1;ratioP1;P1;durP2;ratioP2;P2;SDS_P1;SDS_P2;PMS_P1;PMS_P2;Temp;Humidity;BMP_temperature;BMP_pressure;BME280_temperature;BME280_humidity;BME280_pressure;Samples;Min_cycle;Max_cycle;Signal;HPM_P1;HPM_P2
2021/12/06 00:02:06;;;;;;;73.13;31.92;;;;;;;;;;5022034;28;20053;-37
2021/12/06 00:04:36;;;;;;;75.32;31.85;;;;;;;;;;5019340;28;20022;-37
2021/12/06 00:07:04;;;;;;;78.03;31.50;;;;;;;;;;5020522;28;20033;-37
2021/12/06 00:09:32;;;;;;;76.65;31.75;;;;;;;;;;5025956;28;20048;-37
2021/12/06 00:12:01;;;;;;;79.75;32.15;;;;;;;;;;5024296;28;20053;-37
2021/12/06 00:14:29;;;;;;;82.70;32.00;;;;;;;;;;5017810;28;20024;-37
2021/12/06 00:16:56;;;;;;;89.82;36.10;;;;;;;;;;5015135;28;20030;-37
2021/12/06 00:19:22;;;;;;;81.25;34.60;;;;;;;;;;5019323;28;20045;-37
2021/12/06 00:21:48;;;;;;;79.95;33.95;;;;;;;;;;5015956;28;20022;-37
2021/12/06 00:24:14;;;;;;;97.35;35.65;;;;;;;;;;5018854;28;20064;-37
2021/12/06 00:26:40;;;;;;;87.40;35.92;;;;;;;;;;5020759;28;20056;-37
2021/12/06 00:29:06;;;;;;;80.85;35.10;;;;;;;;;;5017815;28;20065;-37
2021/12/06 00:31:34;;;;;;;92.20;37.05;;;;;;;;;;5018917;28;20492;-37
2021/12/06 00:34:06;;;;;;;84.38;34.22;;;;;;;;;;5020135;28;20481;-37
2021/12/06 00:36:33;;;;;;;91.90;36.95;;;;;;;;;;5018839;28;20373;-37
2021/12/06 00:39:00;;;;;;;81.55;35.95;;;;;;;;;;5016566;28;20096;-37
2021/12/06 00:41:27;;;;;;;96.50;37.72;;;;;;;;;;5015076;28;20030;-37
2021/12/06 00:43:53;;;;;;;89.05;38.03;;;;;;;;;;5022813;28;20030;-37
2021/12/06 00:46:20;;;;;;;91.15;35.72;;;;;;;;;;5020435;28;20022;-37
2021/12/06 00:48:46;;;;;;;103.10;37.22;;;;;;;;;;5014535;28;20157;-37
2021/12/06 00:51:14;;;;;;;96.53;37.70;;;;;;;;;;5022151;28;20060;-37
2021/12/06 00:53:40;;;;;;;114.82;40.45;;;;;;;;;;5016738;28;20018;-37
2021/12/06 00:56:06;;;;;;;96.57;36.70;;;;;;;;;;5022427;28;20163;-37
2021/12/06 00:58:32;;;;;;;99.65;38.33;;;;;;;;;;5015727;28;20038;-37
2021/12/06 01:00:58;;;;;;;97.47;39.03;;;;;;;;;;5021713;28;20026;-37
2021/12/06 01:03:27;;;;;;;94.70;37.38;;;;;;;;;;5017214;28;20408;-37
2021/12/06 01:05:53;;;;;;;102.63;39.45;;;;;;;;;;5017451;28;20034;-37
2021/12/06 01:08:20;;;;;;;102.43;38.45;;;;;;;;;;5020241;28;20503;-38
2021/12/06 01:10:46;;;;;;;101.82;39.17;;;;;;;;;;5017248;28;20077;-37
2021/12/06 01:13:12;;;;;;;108.60;39.42;;;;;;;;;;5015871;28;20033;-37
2021/12/06 01:15:40;;;;;;;105.43;37.45;;;;;;;;;;5014371;28;20030;-37
2021/12/06 01:18:08;;;;;;;95.93;38.20;;;;;;;;;;5020820;28;20052;-38
2021/12/06 01:20:42;;;;;;;106.18;37.33;;;;;;;;;;5014747;28;20022;-37
2021/12/06 01:23:12;;;;;;;94.68;37.83;;;;;;;;;;5024571;28;20441;-37
2021/12/06 01:29:04;;;;;;;101.10;38.33;;;;;;;;;;4969022;28;20045;-37
2021/12/06 01:31:40;;;;;;;100.28;36.78;;;;;;;;;;5027841;28;20684;-37
2021/12/06 01:39:24;;;;;;;103.30;38.53;;;;;;;;;;5022579;28;20137;-37
2021/12/06 01:41:52;;;;;;;98.65;38.70;;;;;;;;;;5017089;28;20057;-37
2021/12/06 01:44:18;;;;;;;100.63;39.17;;;;;;;;;;5026387;28;20029;-37
2021/12/06 01:46:46;;;;;;;96.28;38.78;;;;;;;;;;5020541;28;20080;-37
2021/12/06 01:49:12;;;;;;;96.95;36.47;;;;;;;;;;5027427;28;20053;-37
2021/12/06 01:51:38;;;;;;;96.45;38.72;;;;;;;;;;5042484;28;20052;-37
2021/12/06 01:54:05;;;;;;;101.25;37.25;;;;;;;;;;5025630;28;20485;-37
2021/12/06 01:56:31;;;;;;;96.72;37.75;;;;;;;;;;5028791;28;20038;-37
2021/12/06 01:58:57;;;;;;;97.50;36.03;;;;;;;;;;5027066;28;20412;-37
2021/12/06 02:01:23;;;;;;;106.82;37.47;;;;;;;;;;5027228;28;20635;-37
2021/12/06 02:03:50;;;;;;;96.50;37.88;;;;;;;;;;5028441;28;20037;-37
2021/12/06 02:06:16;;;;;;;91.03;35.47;;;;;;;;;;5039212;28;20071;-37
2021/12/06 02:08:42;;;;;;;81.18;34.83;;;;;;;;;;5033579;28;20163;-37
2021/12/06 02:11:09;;;;;;;92.13;35.42;;;;;;;;;;5032936;28;20060;-37
2021/12/06 02:14:03;;;;;;;96.70;36.38;;;;;;;;;;5034167;28;20103;-37
2021/12/06 02:16:33;;;;;;;91.60;35.30;;;;;;;;;;5024089;28;20040;-37
2021/12/06 02:19:04;;;;;;;91.72;35.30;;;;;;;;;;5025079;23;20046;-43
2021/12/06 02:21:33;;;;;;;92.15;35.58;;;;;;;;;;5011301;28;20033;-44
2021/12/06 02:24:01;;;;;;;89.65;35.38;;;;;;;;;;5003314;28;20026;-46
2021/12/06 02:26:27;;;;;;;90.35;36.13;;;;;;;;;;4994008;28;20037;-45
2021/12/06 02:28:54;;;;;;;82.38;34.90;;;;;;;;;;5012229;28;20175;-44
2021/12/06 02:31:22;;;;;;;89.18;35.42;;;;;;;;;;5000836;28;20065;-45
2021/12/06 02:33:49;;;;;;;90.97;33.53;;;;;;;;;;5008818;28;20046;-46
2021/12/06 02:36:16;;;;;;;86.40;34.50;;;;;;;;;;5013354;28;20032;-45
2021/12/06 02:38:42;;;;;;;87.97;36.15;;;;;;;;;;5001398;28;20021;-44
2021/12/06 02:41:09;;;;;;;86.70;33.15;;;;;;;;;;4995697;28;20026;-44
2021/12/06 02:43:36;;;;;;;85.93;34.75;;;;;;;;;;4992351;28;20022;-45
2021/12/06 02:46:02;;;;;;;82.60;33.08;;;;;;;;;;4993580;28;20019;-47
2021/12/06 02:48:28;;;;;;;80.65;31.98;;;;;;;;;;4997366;28;20030;-45
2021/12/06 02:50:56;;;;;;;78.47;32.38;;;;;;;;;;4995931;28;20097;-44
2021/12/06 02:53:23;;;;;;;93.28;33.58;;;;;;;;;;4996310;28;20546;-46
2021/12/06 02:55:53;;;;;;;87.82;30.90;;;;;;;;;;5012986;28;20053;-46
2021/12/06 03:01:13;;;;;;;84.78;31.83;;;;;;;;;;5009760;28;20029;-49
2021/12/06 03:03:39;;;;;;;84.30;32.03;;;;;;;;;;5011249;28;20073;-45
2021/12/06 03:06:05;;;;;;;84.88;32.80;;;;;;;;;;5010371;28;20021;-45
2021/12/06 03:08:40;;;;;;;86.03;32.03;;;;;;;;;;4996791;28;20036;-43
2021/12/06 03:11:07;;;;;;;96.57;32.45;;;;;;;;;;4992660;28;20018;-44
2021/12/06 03:13:34;;;;;;;88.28;33.72;;;;;;;;;;5007699;28;20112;-47
2021/12/06 03:16:00;;;;;;;91.03;33.47;;;;;;;;;;5008151;28;20030;-46
2021/12/06 03:18:26;;;;;;;79.07;33.08;;;;;;;;;;5000978;28;20056;-44
2021/12/06 03:20:52;;;;;;;87.28;31.83;;;;;;;;;;5012304;28;20029;-44
2021/12/06 03:23:18;;;;;;;89.38;32.80;;;;;;;;;;4993526;28;20053;-44
2021/12/06 03:25:44;;;;;;;80.45;32.40;;;;;;;;;;4998120;28;20030;-45
2021/12/06 03:28:11;;;;;;;91.78;35.55;;;;;;;;;;4999493;28;20509;-45
2021/12/06 03:30:37;;;;;;;103.35;36.35;;;;;;;;;;5002082;28;20472;-44
2021/12/06 03:33:03;;;;;;;103.32;36.15;;;;;;;;;;5008113;28;20037;-46
2021/12/06 03:35:29;;;;;;;101.07;35.25;;;;;;;;;;5011843;28;20477;-45
2021/12/06 03:37:55;;;;;;;99.90;35.97;;;;;;;;;;5001828;28;20137;-44
2021/12/06 03:40:21;;;;;;;104.25;34.88;;;;;;;;;;4991459;28;20057;-45
2021/12/06 03:42:47;;;;;;;110.78;39.05;;;;;;;;;;4993156;28;20521;-44
2021/12/06 03:45:13;;;;;;;97.65;35.95;;;;;;;;;;4992396;28;20065;-45
2021/12/06 03:47:39;;;;;;;97.47;34.45;;;;;;;;;;4999077;28;20654;-45
2021/12/06 03:50:06;;;;;;;91.03;34.63;;;;;;;;;;4998946;28;20027;-44
2021/12/06 03:52:32;;;;;;;95.07;35.60;;;;;;;;;;4983673;28;20054;-44
2021/12/06 03:54:59;;;;;;;94.05;35.00;;;;;;;;;;4987775;28;20035;-44
2021/12/06 03:57:25;;;;;;;94.05;36.40;;;;;;;;;;4981001;28;20037;-43
2021/12/06 03:59:52;;;;;;;108.90;35.33;;;;;;;;;;4983527;28;20057;-44
2021/12/06 04:02:19;;;;;;;97.70;36.35;;;;;;;;;;4983291;28;20034;-45
2021/12/06 04:04:45;;;;;;;94.85;34.45;;;;;;;;;;4980885;28;20054;-44
2021/12/06 04:07:11;;;;;;;103.70;36.90;;;;;;;;;;4988271;28;20081;-44
2021/12/06 04:09:37;;;;;;;107.80;36.80;;;;;;;;;;4975746;28;20069;-44
2021/12/06 04:12:05;;;;;;;95.65;36.03;;;;;;;;;;4983330;28;20053;-44
2021/12/06 04:14:32;;;;;;;108.28;36.58;;;;;;;;;;4987585;28;20062;-46
2021/12/06 04:16:58;;;;;;;89.40;33.35;;;;;;;;;;4983642;28;20027;-45
2021/12/06 04:19:24;;;;;;;104.75;37.30;;;;;;;;;;4983385;28;20018;-45
2021/12/06 04:21:50;;;;;;;92.72;36.58;;;;;;;;;;4988939;28;20481;-45
2021/12/06 04:24:17;;;;;;;104.15;37.92;;;;;;;;;;4984340;28;20018;-44
2021/12/06 04:26:43;;;;;;;102.70;37.25;;;;;;;;;;4986903;28;20030;-44
2021/12/06 04:29:10;;;;;;;105.38;36.42;;;;;;;;;;4981766;28;20462;-46
2021/12/06 04:31:38;;;;;;;108.80;38.55;;;;;;;;;;4975744;28;20053;-47
2021/12/06 04:34:04;;;;;;;122.25;35.72;;;;;;;;;;4977162;28;20101;-47
2021/12/06 04:36:31;;;;;;;106.95;37.40;;;;;;;;;;4985105;28;20463;-45
2021/12/06 04:38:57;;;;;;;103.95;36.05;;;;;;;;;;4982312;28;20097;-44
2021/12/06 04:41:23;;;;;;;118.78;36.60;;;;;;;;;;4982138;28;20084;-44
2021/12/06 04:43:49;;;;;;;121.35;38.33;;;;;;;;;;4978215;28;20451;-44
2021/12/06 04:46:15;;;;;;;104.15;35.90;;;;;;;;;;4991434;28;20438;-44
2021/12/06 04:48:41;;;;;;;112.00;37.55;;;;;;;;;;4978560;28;20057;-44
2021/12/06 04:51:07;;;;;;;106.93;36.38;;;;;;;;;;4982928;28;20023;-46
2021/12/06 04:53:36;;;;;;;120.80;38.95;;;;;;;;;;4980319;28;20109;-45
2021/12/06 04:56:21;;;;;;;127.32;40.83;;;;;;;;;;4986357;28;20085;-45
2021/12/06 04:59:02;;;;;;;136.70;41.27;;;;;;;;;;4980214;28;20031;-45
2021/12/06 05:01:29;;;;;;;127.90;41.03;;;;;;;;;;4983113;28;20022;-44
2021/12/06 05:03:57;;;;;;;129.32;43.42;;;;;;;;;;4982884;28;20050;-42
2021/12/06 05:06:25;;;;;;;133.02;40.30;;;;;;;;;;4986923;28;20041;-44
2021/12/06 05:08:53;;;;;;;141.38;40.63;;;;;;;;;;4984436;28;20109;-44
2021/12/06 05:11:21;;;;;;;145.68;44.90;;;;;;;;;;4980747;28;20535;-44
2021/12/06 05:13:47;;;;;;;137.40;43.10;;;;;;;;;;4984303;28;20030;-44
2021/12/06 05:16:14;;;;;;;111.28;41.60;;;;;;;;;;4976900;28;20030;-45
2021/12/06 05:18:40;;;;;;;117.32;40.60;;;;;;;;;;4975873;28;20069;-44
2021/12/06 05:21:06;;;;;;;122.90;39.85;;;;;;;;;;4976174;28;20019;-43
2021/12/06 05:23:33;;;;;;;130.40;42.60;;;;;;;;;;4984175;28;20022;-43
2021/12/06 05:25:59;;;;;;;139.20;42.83;;;;;;;;;;4971337;28;20065;-43
2021/12/06 05:28:28;;;;;;;138.70;44.55;;;;;;;;;;4973897;28;21665;-43
2021/12/06 05:30:56;;;;;;;131.45;41.72;;;;;;;;;;4986726;28;20038;-39
2021/12/06 05:33:31;;;;;;;127.05;41.03;;;;;;;;;;4990024;28;20022;-43
2021/12/06 05:35:58;;;;;;;120.57;40.22;;;;;;;;;;4986580;28;20023;-43
2021/12/06 05:38:25;;;;;;;142.32;42.95;;;;;;;;;;4983997;28;20050;-43
2021/12/06 05:40:51;;;;;;;118.18;41.30;;;;;;;;;;4984670;28;20030;-43
2021/12/06 05:43:17;;;;;;;134.55;40.53;;;;;;;;;;4987188;28;20061;-42
2021/12/06 05:45:43;;;;;;;111.28;40.55;;;;;;;;;;4986362;28;20074;-43
2021/12/06 05:48:09;;;;;;;145.50;44.17;;;;;;;;;;4987976;28;20022;-42
2021/12/06 05:50:35;;;;;;;132.00;39.58;;;;;;;;;;4982199;28;20060;-42
2021/12/06 05:53:01;;;;;;;124.35;39.33;;;;;;;;;;4989656;28;20066;-43
2021/12/06 05:55:29;;;;;;;124.40;42.22;;;;;;;;;;4987714;28;20034;-43
2021/12/06 05:57:56;;;;;;;135.30;41.90;;;;;;;;;;4988705;28;20038;-42
2021/12/06 06:00:24;;;;;;;124.10;39.05;;;;;;;;;;4985266;28;20034;-42
2021/12/06 06:02:50;;;;;;;133.40;40.78;;;;;;;;;;4984779;28;20054;-44
2021/12/06 06:05:18;;;;;;;125.72;40.67;;;;;;;;;;4990892;28;20021;-43
2021/12/06 06:07:44;;;;;;;130.15;42.95;;;;;;;;;;4989028;28;20036;-43
2021/12/06 06:10:10;;;;;;;143.07;42.60;;;;;;;;;;4982627;28;20051;-43
2021/12/06 06:12:37;;;;;;;134.73;44.45;;;;;;;;;;4987569;28;20062;-42
2021/12/06 06:15:03;;;;;;;129.85;40.53;;;;;;;;;;4981399;28;20034;-42
2021/12/06 06:17:38;;;;;;;117.13;40.17;;;;;;;;;;4983333;28;20488;-42
2021/12/06 06:20:05;;;;;;;140.50;40.97;;;;;;;;;;4980105;28;20486;-43
2021/12/06 06:22:31;;;;;;;110.68;36.95;;;;;;;;;;4979561;28;20031;-42
2021/12/06 06:24:57;;;;;;;102.95;35.92;;;;;;;;;;4987810;28;20031;-41
2021/12/06 06:27:23;;;;;;;100.53;35.90;;;;;;;;;;4983888;28;20030;-42
2021/12/06 06:29:49;;;;;;;99.22;35.92;;;;;;;;;;4985563;28;20042;-42
2021/12/06 06:32:15;;;;;;;104.97;35.92;;;;;;;;;;4987429;28;20065;-42
2021/12/06 06:34:41;;;;;;;100.28;35.90;;;;;;;;;;4991097;28;20057;-42
2021/12/06 06:37:07;;;;;;;100.50;34.17;;;;;;;;;;4987745;28;20026;-41
2021/12/06 06:39:33;;;;;;;109.20;37.83;;;;;;;;;;4982609;28;20035;-43
2021/12/06 06:41:59;;;;;;;98.15;36.30;;;;;;;;;;4988409;28;20051;-42
2021/12/06 06:44:25;;;;;;;106.22;34.17;;;;;;;;;;4989199;28;20252;-44
2021/12/06 06:46:51;;;;;;;105.15;33.53;;;;;;;;;;4988826;28;20058;-43
2021/12/06 06:49:18;;;;;;;113.53;37.00;;;;;;;;;;4987709;28;20057;-43
2021/12/06 06:51:46;;;;;;;109.22;35.28;;;;;;;;;;4983395;28;20137;-44
2021/12/06 06:54:12;;;;;;;95.43;33.20;;;;;;;;;;4992722;28;20600;-44
2021/12/06 06:56:38;;;;;;;104.28;36.63;;;;;;;;;;4985170;28;20109;-43
2021/12/06 06:59:05;;;;;;;105.82;37.30;;;;;;;;;;4984347;28;20037;-44
2021/12/06 07:01:31;;;;;;;103.07;37.17;;;;;;;;;;4983558;28;20045;-43
2021/12/06 07:03:57;;;;;;;113.53;36.72;;;;;;;;;;4981856;28;20073;-44
2021/12/06 07:06:24;;;;;;;103.35;35.17;;;;;;;;;;4985459;28;20406;-39
2021/12/06 07:08:51;;;;;;;115.90;37.35;;;;;;;;;;4988629;28;20474;-40
2021/12/06 07:11:17;;;;;;;107.40;36.35;;;;;;;;;;4989067;28;20446;-38
2021/12/06 07:13:43;;;;;;;104.35;38.30;;;;;;;;;;4989382;28;20062;-39
2021/12/06 07:16:10;;;;;;;114.65;38.45;;;;;;;;;;4989997;28;20030;-37
2021/12/06 07:18:36;;;;;;;109.63;37.55;;;;;;;;;;4989677;28;20030;-37
2021/12/06 07:21:03;;;;;;;109.65;39.85;;;;;;;;;;4990130;28;20026;-41
2021/12/06 07:23:29;;;;;;;120.65;41.95;;;;;;;;;;4990101;28;20057;-37
2021/12/06 07:25:55;;;;;;;112.90;40.05;;;;;;;;;;4991950;28;20022;-37
2021/12/06 07:28:21;;;;;;;125.82;41.92;;;;;;;;;;4993725;28;20109;-38
2021/12/06 07:30:47;;;;;;;131.50;43.58;;;;;;;;;;4979677;28;20480;-39
2021/12/06 07:33:13;;;;;;;137.73;42.33;;;;;;;;;;4993154;28;20034;-37
2021/12/06 07:35:39;;;;;;;131.43;44.97;;;;;;;;;;4992720;28;20102;-37
2021/12/06 07:38:07;;;;;;;120.03;44.17;;;;;;;;;;4991497;28;20066;-38
2021/12/06 07:40:33;;;;;;;129.98;44.13;;;;;;;;;;4997828;28;20019;-38
2021/12/06 07:42:59;;;;;;;125.75;43.88;;;;;;;;;;4984510;28;20026;-39
2021/12/06 07:45:25;;;;;;;128.13;44.40;;;;;;;;;;4990848;28;20473;-38
2021/12/06 07:47:51;;;;;;;129.80;45.15;;;;;;;;;;4992269;28;20030;-38
2021/12/06 07:50:20;;;;;;;121.55;41.67;;;;;;;;;;4991712;28;20041;-38
2021/12/06 07:52:47;;;;;;;124.97;45.15;;;;;;;;;;4990121;28;20034;-39
2021/12/06 07:55:14;;;;;;;127.70;46.40;;;;;;;;;;4990192;28;20061;-38
2021/12/06 07:57:40;;;;;;;123.20;44.80;;;;;;;;;;4988607;28;20389;-38
2021/12/06 08:00:09;;;;;;;127.47;44.60;;;;;;;;;;4995711;28;20030;-38
2021/12/06 08:02:35;;;;;;;131.05;45.25;;;;;;;;;;4990338;28;20022;-37
2021/12/06 08:05:29;;;;;;;126.75;46.03;;;;;;;;;;4987992;28;20431;-38
2021/12/06 08:07:50;;;;;;;124.85;43.38;;;;;;;;;;4985185;28;20690;-38
2021/12/06 08:10:16;;;;;;;129.60;44.15;;;;;;;;;;4993614;28;20030;-37
2021/12/06 08:12:42;;;;;;;116.72;42.28;;;;;;;;;;4994447;28;20101;-38
2021/12/06 08:15:09;;;;;;;128.48;46.75;;;;;;;;;;4991381;28;20027;-38
2021/12/06 08:17:35;;;;;;;109.20;42.38;;;;;;;;;;4992129;28;20026;-38
2021/12/06 08:20:01;;;;;;;113.78;42.75;;;;;;;;;;4983848;28;20054;-39
2021/12/06 08:22:27;;;;;;;125.25;41.83;;;;;;;;;;4983447;28;20875;-38
2021/12/06 08:24:53;;;;;;;117.97;40.20;;;;;;;;;;4986183;28;20187;-36
2021/12/06 08:27:19;;;;;;;119.40;43.20;;;;;;;;;;4988571;28;20026;-39
2021/12/06 08:29:45;;;;;;;119.80;43.35;;;;;;;;;;4989184;28;20066;-38
2021/12/06 08:32:11;;;;;;;130.93;43.75;;;;;;;;;;4988711;28;20088;-42
2021/12/06 08:34:41;;;;;;;130.77;46.55;;;;;;;;;;4989306;28;20073;-38
2021/12/06 08:37:07;;;;;;;121.72;43.42;;;;;;;;;;4989452;28;20030;-37
2021/12/06 08:39:33;;;;;;;106.38;41.20;;;;;;;;;;4991255;28;20030;-39
2021/12/06 08:41:59;;;;;;;113.90;41.03;;;;;;;;;;4993075;28;20481;-39
2021/12/06 08:44:25;;;;;;;100.00;38.60;;;;;;;;;;4987483;28;20532;-41
2021/12/06 08:46:52;;;;;;;115.38;42.30;;;;;;;;;;4987911;28;20106;-39
2021/12/06 08:49:18;;;;;;;121.45;42.80;;;;;;;;;;4985674;28;20045;-37
2021/12/06 08:51:45;;;;;;;121.03;42.47;;;;;;;;;;4989038;28;20034;-37
2021/12/06 08:54:14;;;;;;;120.18;44.00;;;;;;;;;;4980870;28;20038;-38
2021/12/06 08:56:40;;;;;;;111.72;40.72;;;;;;;;;;4989782;28;20034;-38
2021/12/06 08:59:07;;;;;;;116.15;40.88;;;;;;;;;;4988211;28;20030;-37
2021/12/06 09:01:34;;;;;;;92.13;37.33;;;;;;;;;;4986883;28;20050;-37
2021/12/06 09:04:00;;;;;;;108.03;39.92;;;;;;;;;;4991832;28;20049;-38
2021/12/06 09:06:26;;;;;;;98.90;39.95;;;;;;;;;;4992675;28;20023;-38
2021/12/06 09:08:54;;;;;;;102.43;39.50;;;;;;;;;;4991959;28;20061;-38
2021/12/06 09:11:20;;;;;;;100.10;38.83;;;;;;;;;;4986180;28;20110;-38
2021/12/06 09:13:46;;;;;;;99.15;35.83;;;;;;;;;;4986776;28;20161;-39
2021/12/06 09:16:13;;;;;;;98.50;37.28;;;;;;;;;;4989942;28;20061;-39
2021/12/06 09:18:40;;;;;;;100.28;37.85;;;;;;;;;;4990148;28;20465;-38
2021/12/06 09:21:08;;;;;;;85.22;35.42;;;;;;;;;;4990826;28;20026;-38
2021/12/06 09:23:35;;;;;;;83.10;33.75;;;;;;;;;;4992919;28;20030;-37
2021/12/06 09:26:01;;;;;;;74.70;32.58;;;;;;;;;;4993869;28;20027;-37
2021/12/06 09:28:28;;;;;;;80.65;33.25;;;;;;;;;;4988978;28;20050;-38
2021/12/06 09:30:54;;;;;;;78.10;32.42;;;;;;;;;;4988663;28;20409;-39
2021/12/06 09:33:21;;;;;;;81.63;33.08;;;;;;;;;;4987472;28;20173;-39
2021/12/06 09:35:48;;;;;;;72.55;32.22;;;;;;;;;;4993251;28;20433;-37
2021/12/06 09:38:15;;;;;;;72.15;30.90;;;;;;;;;;4988734;28;20038;-36
2021/12/06 09:40:42;;;;;;;74.18;32.22;;;;;;;;;;4988137;28;20520;-38
2021/12/06 09:43:10;;;;;;;81.20;30.25;;;;;;;;;;4988983;28;20019;-38
2021/12/06 09:45:36;;;;;;;66.15;28.40;;;;;;;;;;4988634;28;20031;-36
2021/12/06 09:48:03;;;;;;;83.93;31.70;;;;;;;;;;4989291;28;20104;-36
2021/12/06 09:50:36;;;;;;;63.13;29.65;;;;;;;;;;4991281;28;20026;-37
2021/12/06 09:53:05;;;;;;;70.25;30.45;;;;;;;;;;4991366;28;20584;-37
2021/12/06 09:55:32;;;;;;;74.13;29.83;;;;;;;;;;4996536;28;20637;-37
2021/12/06 09:57:58;;;;;;;55.35;26.27;;;;;;;;;;4997584;28;20054;-36
2021/12/06 10:00:26;;;;;;;64.55;30.08;;;;;;;;;;4995257;28;20050;-37
2021/12/06 10:02:53;;;;;;;67.15;27.40;;;;;;;;;;4991387;28;20031;-38
2021/12/06 10:05:20;;;;;;;60.47;26.88;;;;;;;;;;4993900;28;20466;-38
2021/12/06 10:07:46;;;;;;;53.90;26.73;;;;;;;;;;4994429;28;20022;-37
2021/12/06 10:10:14;;;;;;;57.67;27.08;;;;;;;;;;4993301;28;20065;-38
2021/12/06 10:12:42;;;;;;;57.40;27.75;;;;;;;;;;4995543;28;20050;-38
2021/12/06 10:15:08;;;;;;;61.05;26.38;;;;;;;;;;5001223;28;20027;-37
2021/12/06 10:17:34;;;;;;;58.55;25.08;;;;;;;;;;5005092;28;20054;-37
2021/12/06 10:20:01;;;;;;;57.92;24.73;;;;;;;;;;4993445;28;20030;-39
2021/12/06 10:22:27;;;;;;;52.08;24.13;;;;;;;;;;4990244;28;20050;-42
2021/12/06 10:24:55;;;;;;;54.33;24.13;;;;;;;;;;4990098;28;20026;-37
2021/12/06 10:27:21;;;;;;;57.10;25.58;;;;;;;;;;4992135;28;20379;-39
2021/12/06 10:29:49;;;;;;;49.63;24.38;;;;;;;;;;4992653;28;20083;-39
2021/12/06 10:32:20;;;;;;;53.40;24.60;;;;;;;;;;4996365;28;20027;-38
2021/12/06 10:34:52;;;;;;;49.65;23.75;;;;;;;;;;4990626;28;20054;-37
2021/12/06 10:37:45;;;;;;;48.08;23.35;;;;;;;;;;4993828;28;20057;-38
2021/12/06 10:40:13;;;;;;;55.58;23.65;;;;;;;;;;4995035;28;20042;-38
2021/12/06 10:42:40;;;;;;;46.85;22.33;;;;;;;;;;4988554;28;20046;-38
2021/12/06 10:45:11;;;;;;;44.38;22.83;;;;;;;;;;4990303;28;20025;-38
2021/12/06 10:47:39;;;;;;;49.00;23.83;;;;;;;;;;4988942;28;20297;-38
2021/12/06 10:50:08;;;;;;;52.53;22.88;;;;;;;;;;4987394;28;20034;-39
2021/12/06 10:52:34;;;;;;;50.30;24.83;;;;;;;;;;4985992;28;20485;-39
2021/12/06 10:55:00;;;;;;;53.72;24.05;;;;;;;;;;4988931;28;20036;-40
2021/12/06 10:57:46;;;;;;;41.92;21.67;;;;;;;;;;4993181;28;20101;-39
2021/12/06 11:00:27;;;;;;;49.33;22.63;;;;;;;;;;4987813;28;20489;-39
2021/12/06 11:02:53;;;;;;;42.90;21.60;;;;;;;;;;4983819;28;20085;-40
2021/12/06 11:05:26;;;;;;;49.70;24.23;;;;;;;;;;4988696;28;20054;-40
2021/12/06 11:08:10;;;;;;;47.45;22.15;;;;;;;;;;4985408;28;20060;-38
2021/12/06 11:10:45;;;;;;;51.28;24.50;;;;;;;;;;4988532;28;20065;-40
2021/12/06 11:13:15;;;;;;;50.92;24.02;;;;;;;;;;4991184;28;20512;-39
2021/12/06 11:15:56;;;;;;;48.30;23.55;;;;;;;;;;4975524;28;20412;-39
2021/12/06 11:18:39;;;;;;;46.53;22.60;;;;;;;;;;4988026;28;20067;-40
2021/12/06 11:21:13;;;;;;;45.47;23.10;;;;;;;;;;4992332;28;20037;-39
2021/12/06 11:23:55;;;;;;;52.65;23.92;;;;;;;;;;4999956;28;20021;-39
2021/12/06 11:26:21;;;;;;;58.83;26.30;;;;;;;;;;5001660;28;20031;-39
2021/12/06 11:28:47;;;;;;;58.70;25.60;;;;;;;;;;4996908;28;20543;-39
2021/12/06 11:31:16;;;;;;;53.10;24.35;;;;;;;;;;4993064;28;20038;-37
2021/12/06 11:33:42;;;;;;;49.42;24.05;;;;;;;;;;4993650;28;20052;-39
2021/12/06 11:36:23;;;;;;;54.28;26.48;;;;;;;;;;4991506;28;20145;-38
2021/12/06 11:38:57;;;;;;;51.55;24.38;;;;;;;;;;4991111;28;20032;-37
2021/12/06 11:41:23;;;;;;;49.30;23.67;;;;;;;;;;5001947;28;20019;-40
2021/12/06 11:43:49;;;;;;;53.47;25.48;;;;;;;;;;4991359;28;20026;-40
2021/12/06 11:46:27;;;;;;;64.45;27.30;;;;;;;;;;4999953;28;20034;-38
2021/12/06 11:48:53;;;;;;;53.97;25.83;;;;;;;;;;4988988;28;20023;-40
2021/12/06 11:51:19;;;;;;;51.67;24.20;;;;;;;;;;4988326;28;20037;-39
2021/12/06 11:53:47;;;;;;;54.67;24.63;;;;;;;;;;5002801;28;20030;-39
2021/12/06 11:56:13;;;;;;;52.70;24.52;;;;;;;;;;4990640;28;20030;-39
2021/12/06 11:58:46;;;;;;;56.38;26.08;;;;;;;;;;4990262;28;20556;-40
2021/12/06 12:01:15;;;;;;;50.40;25.60;;;;;;;;;;4995728;28;20079;-39
2021/12/06 12:03:46;;;;;;;48.28;24.08;;;;;;;;;;5011004;28;20064;-40
2021/12/06 12:06:31;;;;;;;55.00;25.17;;;;;;;;;;4999579;28;20101;-38
2021/12/06 12:09:06;;;;;;;47.08;24.27;;;;;;;;;;4991495;28;20551;-38
2021/12/06 12:11:32;;;;;;;50.58;25.55;;;;;;;;;;4995525;28;20049;-38
2021/12/06 12:13:58;;;;;;;48.47;22.90;;;;;;;;;;4998959;28;20120;-38
2021/12/06 12:16:24;;;;;;;43.72;21.35;;;;;;;;;;5001476;28;20027;-38
2021/12/06 12:18:51;;;;;;;45.40;21.20;;;;;;;;;;4990387;28;20184;-39
2021/12/06 12:21:17;;;;;;;41.30;19.58;;;;;;;;;;4999271;28;20038;-38
2021/12/06 12:23:43;;;;;;;36.03;18.45;;;;;;;;;;4995020;28;20022;-38
2021/12/06 12:26:15;;;;;;;39.10;18.25;;;;;;;;;;4993136;28;20129;-38
2021/12/06 12:29:00;;;;;;;41.33;19.35;;;;;;;;;;5002885;28;20069;-38
2021/12/06 12:31:28;;;;;;;33.92;17.65;;;;;;;;;;5003463;28;20030;-38
2021/12/06 12:33:55;;;;;;;36.35;18.73;;;;;;;;;;4993418;28;20089;-38
2021/12/06 12:36:23;;;;;;;37.50;19.30;;;;;;;;;;4989934;28;20446;-38
2021/12/06 12:38:52;;;;;;;39.60;19.90;;;;;;;;;;4987037;28;20390;-38
2021/12/06 12:41:19;;;;;;;40.83;19.75;;;;;;;;;;4993110;28;20022;-38
2021/12/06 12:43:50;;;;;;;41.50;20.08;;;;;;;;;;4988906;28;20026;-38
2021/12/06 12:46:18;;;;;;;41.85;20.85;;;;;;;;;;4988949;28;20073;-38
2021/12/06 12:48:46;;;;;;;41.67;19.63;;;;;;;;;;4992323;28;20030;-38
2021/12/06 12:51:15;;;;;;;41.67;20.20;;;;;;;;;;4991038;28;20030;-38
2021/12/06 12:53:46;;;;;;;40.83;20.45;;;;;;;;;;4999957;28;20077;-38
2021/12/06 12:56:19;;;;;;;43.03;20.27;;;;;;;;;;5002648;28;20502;-38
2021/12/06 12:58:45;;;;;;;39.33;18.85;;;;;;;;;;4988389;28;20393;-38
2021/12/06 13:01:13;;;;;;;35.90;17.55;;;;;;;;;;4975906;28;20022;-39
2021/12/06 13:03:44;;;;;;;40.67;18.70;;;;;;;;;;5000406;28;20019;-38
2021/12/06 13:06:14;;;;;;;42.45;18.90;;;;;;;;;;4981947;28;20030;-39
2021/12/06 13:08:40;;;;;;;46.53;19.73;;;;;;;;;;4997984;28;20481;-39
2021/12/06 13:11:06;;;;;;;34.97;18.25;;;;;;;;;;4992989;28;20029;-39
2021/12/06 13:13:39;;;;;;;40.47;19.58;;;;;;;;;;4998042;28;20496;-39
2021/12/06 13:16:11;;;;;;;40.92;19.95;;;;;;;;;;4991835;28;20042;-40
2021/12/06 13:19:12;;;;;;;40.47;18.98;;;;;;;;;;4991145;28;20080;-39
2021/12/06 13:21:52;;;;;;;40.00;19.80;;;;;;;;;;4985298;28;20500;-38
2021/12/06 13:24:18;;;;;;;37.75;19.15;;;;;;;;;;4985862;28;20490;-39
2021/12/06 13:26:45;;;;;;;39.95;19.60;;;;;;;;;;4992376;28;20022;-38
2021/12/06 13:29:13;;;;;;;35.92;18.52;;;;;;;;;;4990073;28;20038;-38
2021/12/06 13:31:39;;;;;;;36.38;19.63;;;;;;;;;;4995972;28;20026;-39
2021/12/06 13:34:29;;;;;;;37.42;17.77;;;;;;;;;;4998885;28;20717;-39
2021/12/06 13:36:56;;;;;;;36.97;18.17;;;;;;;;;;4993410;28;20038;-38
2021/12/06 13:39:31;;;;;;;43.60;20.60;;;;;;;;;;4994702;28;20169;-37
2021/12/06 13:41:58;;;;;;;48.00;23.58;;;;;;;;;;4994150;28;20057;-39
2021/12/06 13:44:38;;;;;;;39.40;20.13;;;;;;;;;;4997833;28;20031;-38
2021/12/06 13:47:08;;;;;;;36.92;17.65;;;;;;;;;;4976636;28;20073;-38
2021/12/06 13:49:34;;;;;;;44.38;20.73;;;;;;;;;;4997171;28;20496;-39
2021/12/06 13:52:02;;;;;;;41.22;19.52;;;;;;;;;;4997115;28;20026;-38
2021/12/06 13:54:38;;;;;;;47.28;21.73;;;;;;;;;;4995298;28;20079;-39
2021/12/06 13:57:06;;;;;;;41.63;20.17;;;;;;;;;;4996537;28;20045;-38
2021/12/06 13:59:41;;;;;;;42.72;20.60;;;;;;;;;;4993470;28;20045;-38
2021/12/06 14:02:08;;;;;;;47.50;21.70;;;;;;;;;;4995886;28;20054;-39
2021/12/06 14:04:35;;;;;;;39.90;19.98;;;;;;;;;;4995010;28;20049;-38
2021/12/06 14:07:02;;;;;;;45.80;20.70;;;;;;;;;;4997762;28;20038;-38
2021/12/06 14:09:29;;;;;;;43.78;20.20;;;;;;;;;;4999500;28;20066;-38
2021/12/06 14:11:56;;;;;;;43.80;20.58;;;;;;;;;;4996849;28;20030;-39
2021/12/06 14:14:24;;;;;;;40.10;21.05;;;;;;;;;;4999819;28;20109;-39
2021/12/06 14:16:50;;;;;;;44.58;20.27;;;;;;;;;;4999260;28;20045;-39
2021/12/06 14:19:16;;;;;;;43.13;21.00;;;;;;;;;;4997087;28;20034;-37
2021/12/06 14:21:45;;;;;;;42.92;22.02;;;;;;;;;;4993485;28;20050;-38
2021/12/06 14:24:11;;;;;;;41.65;19.73;;;;;;;;;;4996123;28;20037;-37
2021/12/06 14:26:43;;;;;;;47.88;22.63;;;;;;;;;;4993732;28;20536;-37
2021/12/06 14:29:13;;;;;;;43.83;21.00;;;;;;;;;;4991658;28;20490;-38